sensor_id;sensor_type;location;lat;lon;timestamp;temperature;humidity
53643;DHT22;39546;45.534;12.048;2023-05-10T00:01:21;19.30;75.70
53643;DHT22;39546;45.534;12.048;2023-05-10T00:07:23;19.20;75.90
53643;DHT22;39546;45.534;12.048;2023-05-10T00:13:25;19.10;75.90
53643;DHT22;39546;45.534;12.048;2023-05-10T00:19:27;19.10;76.70
53643;DHT22;39546;45.534;12.048;2023-05-10T00:25:29;19.10;76.30
53643;DHT22;39546;45.534;12.048;2023-05-10T00:31:31;19.10;76.20
53643;DHT22;39546;45.534;12.048;2023-05-10T00:37:34;19.00;75.60
53643;DHT22;39546;45.534;12.048;2023-05-10T00:43:36;19.00;76.00
53643;DHT22;39546;45.534;12.048;2023-05-10T00:49:40;19.00;76.30
53643;DHT22;39546;45.534;12.048;2023-05-10T00:55:42;19.00;76.30
53643;DHT22;39546;45.534;12.048;2023-05-10T01:01:45;18.90;77.00
53643;DHT22;39546;45.534;12.048;2023-05-10T01:07:47;18.90;76.70
53643;DHT22;39546;45.534;12.048;2023-05-10T01:13:55;18.80;76.40
53643;DHT22;39546;45.534;12.048;2023-05-10T01:19:57;18.80;76.60
53643;DHT22;39546;45.534;12.048;2023-05-10T01:32:24;18.80;77.30
53643;DHT22;39546;45.534;12.048;2023-05-10T01:44:58;19.00;78.40
53643;DHT22;39546;45.534;12.048;2023-05-10T01:51:02;19.00;78.40
53643;DHT22;39546;45.534;12.048;2023-05-10T01:57:06;19.10;78.90
53643;DHT22;39546;45.534;12.048;2023-05-10T02:03:11;19.10;79.20
53643;DHT22;39546;45.534;12.048;2023-05-10T02:09:14;19.00;79.50
53643;DHT22;39546;45.534;12.048;2023-05-10T02:15:22;19.00;80.00
53643;DHT22;39546;45.534;12.048;2023-05-10T02:21:24;19.00;80.40
53643;DHT22;39546;45.534;12.048;2023-05-10T02:27:28;19.10;80.70
53643;DHT22;39546;45.534;12.048;2023-05-10T02:33:31;19.00;80.70
53643;DHT22;39546;45.534;12.048;2023-05-10T02:39:34;18.90;80.80
53643;DHT22;39546;45.534;12.048;2023-05-10T02:45:38;18.90;80.60
53643;DHT22;39546;45.534;12.048;2023-05-10T02:51:44;18.80;81.00
53643;DHT22;39546;45.534;12.048;2023-05-10T02:57:54;18.80;81.10
53643;DHT22;39546;45.534;12.048;2023-05-10T03:03:58;18.70;80.80
53643;DHT22;39546;45.534;12.048;2023-05-10T03:10:01;18.70;81.00
53643;DHT22;39546;45.534;12.048;2023-05-10T03:16:15;18.60;81.00
53643;DHT22;39546;45.534;12.048;2023-05-10T03:28:43;18.50;81.30
53643;DHT22;39546;45.534;12.048;2023-05-10T03:34:46;18.50;81.50
53643;DHT22;39546;45.534;12.048;2023-05-10T03:40:48;18.50;81.50
53643;DHT22;39546;45.534;12.048;2023-05-10T03:46:50;18.40;81.70
53643;DHT22;39546;45.534;12.048;2023-05-10T03:52:52;18.50;81.90
53643;DHT22;39546;45.534;12.048;2023-05-10T03:58:55;18.50;81.60
53643;DHT22;39546;45.534;12.048;2023-05-10T04:04:57;18.50;81.40
53643;DHT22;39546;45.534;12.048;2023-05-10T04:11:06;18.50;81.40
53643;DHT22;39546;45.534;12.048;2023-05-10T04:17:09;18.40;81.40
53643;DHT22;39546;45.534;12.048;2023-05-10T04:23:12;18.30;81.40
53643;DHT22;39546;45.534;12.048;2023-05-10T04:29:17;18.30;81.50
53643;DHT22;39546;45.534;12.048;2023-05-10T04:35:18;18.30;81.60
53643;DHT22;39546;45.534;12.048;2023-05-10T04:41:21;18.30;82.00
53643;DHT22;39546;45.534;12.048;2023-05-10T04:47:23;18.20;81.70
53643;DHT22;39546;45.534;12.048;2023-05-10T04:53:40;18.20;81.60
53643;DHT22;39546;45.534;12.048;2023-05-10T04:59:42;18.20;81.60
53643;DHT22;39546;45.534;12.048;2023-05-10T05:05:44;18.20;81.70
53643;DHT22;39546;45.534;12.048;2023-05-10T05:11:53;18.20;81.60
53643;DHT22;39546;45.534;12.048;2023-05-10T05:17:57;18.20;81.80
53643;DHT22;39546;45.534;12.048;2023-05-10T05:23:59;18.10;82.20
53643;DHT22;39546;45.534;12.048;2023-05-10T05:30:11;18.00;82.30
53643;DHT22;39546;45.534;12.048;2023-05-10T05:36:12;18.00;82.40
53643;DHT22;39546;45.534;12.048;2023-05-10T05:42:15;18.00;82.40
53643;DHT22;39546;45.534;12.048;2023-05-10T05:48:18;18.00;82.40
53643;DHT22;39546;45.534;12.048;2023-05-10T05:54:20;17.90;82.50
53643;DHT22;39546;45.534;12.048;2023-05-10T06:00:22;17.90;82.40
53643;DHT22;39546;45.534;12.048;2023-05-10T06:06:50;17.80;82.60
53643;DHT22;39546;45.534;12.048;2023-05-10T06:12:53;17.80;82.70
53643;DHT22;39546;45.534;12.048;2023-05-10T06:19:00;17.80;82.80
53643;DHT22;39546;45.534;12.048;2023-05-10T06:25:06;17.80;82.60
53643;DHT22;39546;45.534;12.048;2023-05-10T06:31:09;17.90;82.80
53643;DHT22;39546;45.534;12.048;2023-05-10T06:37:15;17.80;82.50
53643;DHT22;39546;45.534;12.048;2023-05-10T06:43:17;17.80;82.80
53643;DHT22;39546;45.534;12.048;2023-05-10T06:49:19;17.80;83.00
53643;DHT22;39546;45.534;12.048;2023-05-10T06:55:21;17.70;83.00
53643;DHT22;39546;45.534;12.048;2023-05-10T07:01:23;17.70;83.20
53643;DHT22;39546;45.534;12.048;2023-05-10T07:07:25;17.70;83.20
53643;DHT22;39546;45.534;12.048;2023-05-10T07:13:27;17.70;83.40
53643;DHT22;39546;45.534;12.048;2023-05-10T07:19:29;17.70;83.20
53643;DHT22;39546;45.534;12.048;2023-05-10T07:25:31;17.60;83.40
53643;DHT22;39546;45.534;12.048;2023-05-10T07:31:34;17.60;83.40
53643;DHT22;39546;45.534;12.048;2023-05-10T07:37:36;17.50;83.30
53643;DHT22;39546;45.534;12.048;2023-05-10T07:43:38;17.50;83.40
53643;DHT22;39546;45.534;12.048;2023-05-10T07:49:40;17.30;83.20
53643;DHT22;39546;45.534;12.048;2023-05-10T07:55:42;17.30;83.50
53643;DHT22;39546;45.534;12.048;2023-05-10T08:01:44;17.30;83.50
53643;DHT22;39546;45.534;12.048;2023-05-10T08:07:46;17.30;83.70
53643;DHT22;39546;45.534;12.048;2023-05-10T08:13:51;17.20;83.80
53643;DHT22;39546;45.534;12.048;2023-05-10T08:20:01;17.20;83.80
53643;DHT22;39546;45.534;12.048;2023-05-10T08:26:03;17.00;84.10
53643;DHT22;39546;45.534;12.048;2023-05-10T08:32:05;17.00;84.40
53643;DHT22;39546;45.534;12.048;2023-05-10T08:38:08;17.00;84.30
53643;DHT22;39546;45.534;12.048;2023-05-10T08:44:10;17.10;84.20
53643;DHT22;39546;45.534;12.048;2023-05-10T08:50:39;17.10;84.30
53643;DHT22;39546;45.534;12.048;2023-05-10T08:56:41;17.10;84.10
53643;DHT22;39546;45.534;12.048;2023-05-10T09:02:43;17.00;84.30
53643;DHT22;39546;45.534;12.048;2023-05-10T09:08:49;17.00;84.30
53643;DHT22;39546;45.534;12.048;2023-05-10T09:14:54;16.80;84.30
53643;DHT22;39546;45.534;12.048;2023-05-10T09:20:57;16.80;84.80
53643;DHT22;39546;45.534;12.048;2023-05-10T09:27:01;16.70;84.70
53643;DHT22;39546;45.534;12.048;2023-05-10T09:33:03;16.70;84.80
53643;DHT22;39546;45.534;12.048;2023-05-10T09:39:06;16.70;84.70
53643;DHT22;39546;45.534;12.048;2023-05-10T09:45:08;16.60;84.90
53643;DHT22;39546;45.534;12.048;2023-05-10T09:51:18;16.60;85.10
53643;DHT22;39546;45.534;12.048;2023-05-10T09:57:21;16.70;85.10
53643;DHT22;39546;45.534;12.048;2023-05-10T10:03:23;16.70;84.90
53643;DHT22;39546;45.534;12.048;2023-05-10T10:09:27;16.60;85.10
53643;DHT22;39546;45.534;12.048;2023-05-10T10:15:35;16.50;84.70
53643;DHT22;39546;45.534;12.048;2023-05-10T10:21:37;16.40;85.00
53643;DHT22;39546;45.534;12.048;2023-05-10T10:27:49;16.40;85.10
53643;DHT22;39546;45.534;12.048;2023-05-10T10:34:09;16.50;85.00
53643;DHT22;39546;45.534;12.048;2023-05-10T10:40:31;16.50;84.90
53643;DHT22;39546;45.534;12.048;2023-05-10T10:46:34;16.30;85.30
53643;DHT22;39546;45.534;12.048;2023-05-10T10:52:37;16.40;85.50
53643;DHT22;39546;45.534;12.048;2023-05-10T10:58:40;16.40;85.20
53643;DHT22;39546;45.534;12.048;2023-05-10T11:04:43;16.30;85.20
53643;DHT22;39546;45.534;12.048;2023-05-10T11:11:08;16.30;85.40
53643;DHT22;39546;45.534;12.048;2023-05-10T11:17:24;16.30;85.50
53643;DHT22;39546;45.534;12.048;2023-05-10T11:29:33;16.40;85.70
53643;DHT22;39546;45.534;12.048;2023-05-10T11:42:08;16.50;85.60
53643;DHT22;39546;45.534;12.048;2023-05-10T11:48:13;16.40;85.40
53643;DHT22;39546;45.534;12.048;2023-05-10T11:54:16;16.30;85.90
53643;DHT22;39546;45.534;12.048;2023-05-10T12:00:23;16.20;86.10
53643;DHT22;39546;45.534;12.048;2023-05-10T12:06:27;16.20;85.70
53643;DHT22;39546;45.534;12.048;2023-05-10T12:12:45;16.10;85.80
53643;DHT22;39546;45.534;12.048;2023-05-10T12:18:49;16.10;85.90
53643;DHT22;39546;45.534;12.048;2023-05-10T12:24:52;16.00;86.00
53643;DHT22;39546;45.534;12.048;2023-05-10T12:31:11;16.00;86.20
53643;DHT22;39546;45.534;12.048;2023-05-10T12:37:13;16.00;86.20
53643;DHT22;39546;45.534;12.048;2023-05-10T12:43:16;16.00;86.20
53643;DHT22;39546;45.534;12.048;2023-05-10T12:49:20;16.10;86.40
53643;DHT22;39546;45.534;12.048;2023-05-10T12:55:25;16.10;86.30
53643;DHT22;39546;45.534;12.048;2023-05-10T13:01:27;16.10;86.50
53643;DHT22;39546;45.534;12.048;2023-05-10T13:07:53;16.00;86.30
53643;DHT22;39546;45.534;12.048;2023-05-10T13:13:59;16.00;86.60
53643;DHT22;39546;45.534;12.048;2023-05-10T13:20:02;16.10;86.40
53643;DHT22;39546;45.534;12.048;2023-05-10T13:26:05;16.10;86.30
53643;DHT22;39546;45.534;12.048;2023-05-10T13:32:08;15.90;86.20
53643;DHT22;39546;45.534;12.048;2023-05-10T13:38:16;15.90;86.60
53643;DHT22;39546;45.534;12.048;2023-05-10T13:44:21;15.90;86.70
53643;DHT22;39546;45.534;12.048;2023-05-10T13:50:27;15.90;86.50
53643;DHT22;39546;45.534;12.048;2023-05-10T13:56:33;15.80;86.70
53643;DHT22;39546;45.534;12.048;2023-05-10T14:02:36;15.70;86.70
53643;DHT22;39546;45.534;12.048;2023-05-10T14:08:38;15.70;86.70
53643;DHT22;39546;45.534;12.048;2023-05-10T14:14:41;15.70;86.90
53643;DHT22;39546;45.534;12.048;2023-05-10T14:20:43;15.70;86.70
53643;DHT22;39546;45.534;12.048;2023-05-10T14:26:46;15.70;86.80
53643;DHT22;39546;45.534;12.048;2023-05-10T14:32:48;15.60;86.90
53643;DHT22;39546;45.534;12.048;2023-05-10T14:38:50;15.60;87.00
53643;DHT22;39546;45.534;12.048;2023-05-10T14:44:53;15.60;87.10
53643;DHT22;39546;45.534;12.048;2023-05-10T14:50:55;15.50;86.80
53643;DHT22;39546;45.534;12.048;2023-05-10T14:56:58;15.50;87.10
53643;DHT22;39546;45.534;12.048;2023-05-10T15:03:04;15.60;87.10
53643;DHT22;39546;45.534;12.048;2023-05-10T15:09:07;15.60;87.10
53643;DHT22;39546;45.534;12.048;2023-05-10T15:15:14;15.50;87.20
53643;DHT22;39546;45.534;12.048;2023-05-10T15:21:18;15.50;87.20
53643;DHT22;39546;45.534;12.048;2023-05-10T15:27:20;15.50;87.30
53643;DHT22;39546;45.534;12.048;2023-05-10T15:33:23;15.50;87.00
53643;DHT22;39546;45.534;12.048;2023-05-10T15:39:25;15.40;87.20
53643;DHT22;39546;45.534;12.048;2023-05-10T15:45:27;15.30;87.20
53643;DHT22;39546;45.534;12.048;2023-05-10T15:51:29;15.30;87.40
53643;DHT22;39546;45.534;12.048;2023-05-10T15:57:31;15.30;87.30
53643;DHT22;39546;45.534;12.048;2023-05-10T16:03:33;15.30;87.30
53643;DHT22;39546;45.534;12.048;2023-05-10T16:09:36;15.30;87.60
53643;DHT22;39546;45.534;12.048;2023-05-10T16:15:38;15.20;87.50
53643;DHT22;39546;45.534;12.048;2023-05-10T16:21:40;15.20;87.60
53643;DHT22;39546;45.534;12.048;2023-05-10T16:27:48;15.20;87.40
53643;DHT22;39546;45.534;12.048;2023-05-10T16:33:52;15.20;87.60
53643;DHT22;39546;45.534;12.048;2023-05-10T16:40:19;15.20;87.60
53643;DHT22;39546;45.534;12.048;2023-05-10T16:46:21;15.10;87.80
53643;DHT22;39546;45.534;12.048;2023-05-10T16:52:23;15.00;87.70
53643;DHT22;39546;45.534;12.048;2023-05-10T16:58:30;15.00;87.80
53643;DHT22;39546;45.534;12.048;2023-05-10T17:04:32;15.00;87.90
53643;DHT22;39546;45.534;12.048;2023-05-10T17:10:35;15.00;87.90
53643;DHT22;39546;45.534;12.048;2023-05-10T17:16:37;14.90;87.90
53643;DHT22;39546;45.534;12.048;2023-05-10T17:22:40;14.90;88.00
53643;DHT22;39546;45.534;12.048;2023-05-10T17:29:05;14.90;88.20
53643;DHT22;39546;45.534;12.048;2023-05-10T17:35:07;14.90;88.20
53643;DHT22;39546;45.534;12.048;2023-05-10T17:41:13;14.90;88.10
53643;DHT22;39546;45.534;12.048;2023-05-10T17:47:16;14.90;87.90
53643;DHT22;39546;45.534;12.048;2023-05-10T17:53:19;14.80;88.10
53643;DHT22;39546;45.534;12.048;2023-05-10T17:59:21;14.80;88.20
53643;DHT22;39546;45.534;12.048;2023-05-10T18:05:23;14.80;88.10
53643;DHT22;39546;45.534;12.048;2023-05-10T18:11:25;14.80;88.10
53643;DHT22;39546;45.534;12.048;2023-05-10T18:17:28;14.80;88.10
53643;DHT22;39546;45.534;12.048;2023-05-10T18:23:35;14.70;88.30
53643;DHT22;39546;45.534;12.048;2023-05-10T18:29:40;14.80;88.20
53643;DHT22;39546;45.534;12.048;2023-05-10T18:35:42;14.70;88.20
53643;DHT22;39546;45.534;12.048;2023-05-10T18:41:46;14.70;88.10
53643;DHT22;39546;45.534;12.048;2023-05-10T18:47:48;14.70;88.40
53643;DHT22;39546;45.534;12.048;2023-05-10T18:53:50;14.70;88.40
53643;DHT22;39546;45.534;12.048;2023-05-10T19:00:08;14.70;88.40
53643;DHT22;39546;45.534;12.048;2023-05-10T19:06:16;14.70;88.40
53643;DHT22;39546;45.534;12.048;2023-05-10T19:12:18;14.70;88.40
53643;DHT22;39546;45.534;12.048;2023-05-10T19:18:21;14.60;88.50
53643;DHT22;39546;45.534;12.048;2023-05-10T19:24:33;14.60;88.60
53643;DHT22;39546;45.534;12.048;2023-05-10T19:30:54;14.60;88.60
53643;DHT22;39546;45.534;12.048;2023-05-10T19:37:06;14.70;88.50
53643;DHT22;39546;45.534;12.048;2023-05-10T19:43:15;14.70;88.50
53643;DHT22;39546;45.534;12.048;2023-05-10T19:49:17;14.70;88.30
53643;DHT22;39546;45.534;12.048;2023-05-10T19:55:30;14.60;88.40
53643;DHT22;39546;45.534;12.048;2023-05-10T20:01:34;14.60;88.50
53643;DHT22;39546;45.534;12.048;2023-05-10T20:07:37;14.60;88.60
53643;DHT22;39546;45.534;12.048;2023-05-10T20:13:39;14.60;88.30
53643;DHT22;39546;45.534;12.048;2023-05-10T20:19:41;14.50;88.40
53643;DHT22;39546;45.534;12.048;2023-05-10T20:25:51;14.50;88.50
53643;DHT22;39546;45.534;12.048;2023-05-10T20:31:53;14.50;88.60
53643;DHT22;39546;45.534;12.048;2023-05-10T20:37:55;14.50;88.50
53643;DHT22;39546;45.534;12.048;2023-05-10T20:43:57;14.40;88.50
53643;DHT22;39546;45.534;12.048;2023-05-10T20:49:59;14.50;88.80
53643;DHT22;39546;45.534;12.048;2023-05-10T20:56:02;14.50;88.60
53643;DHT22;39546;45.534;12.048;2023-05-10T21:02:04;14.50;88.70
53643;DHT22;39546;45.534;12.048;2023-05-10T21:08:22;14.40;88.70
53643;DHT22;39546;45.534;12.048;2023-05-10T21:14:48;14.40;88.70
53643;DHT22;39546;45.534;12.048;2023-05-10T21:20:50;14.40;88.80
53643;DHT22;39546;45.534;12.048;2023-05-10T21:26:54;14.40;88.80
53643;DHT22;39546;45.534;12.048;2023-05-10T21:33:17;14.40;88.60
53643;DHT22;39546;45.534;12.048;2023-05-10T21:39:23;14.40;88.80
53643;DHT22;39546;45.534;12.048;2023-05-10T21:45:26;14.50;88.90
53643;DHT22;39546;45.534;12.048;2023-05-10T21:51:35;14.40;88.80
53643;DHT22;39546;45.534;12.048;2023-05-10T21:57:43;14.40;88.60
53643;DHT22;39546;45.534;12.048;2023-05-10T22:03:49;14.40;88.70
53643;DHT22;39546;45.534;12.048;2023-05-10T22:09:51;14.30;88.80
53643;DHT22;39546;45.534;12.048;2023-05-10T22:15:55;14.30;89.00
53643;DHT22;39546;45.534;12.048;2023-05-10T22:22:00;14.30;88.90
53643;DHT22;39546;45.534;12.048;2023-05-10T22:28:11;14.30;88.90
53643;DHT22;39546;45.534;12.048;2023-05-10T22:34:15;14.30;88.80
53643;DHT22;39546;45.534;12.048;2023-05-10T22:40:31;14.30;88.80
53643;DHT22;39546;45.534;12.048;2023-05-10T22:46:37;14.30;88.90
53643;DHT22;39546;45.534;12.048;2023-05-10T22:52:41;14.30;88.80
53643;DHT22;39546;45.534;12.048;2023-05-10T22:58:43;14.30;88.90
53643;DHT22;39546;45.534;12.048;2023-05-10T23:04:46;14.20;88.90
53643;DHT22;39546;45.534;12.048;2023-05-10T23:10:48;14.20;89.00
53643;DHT22;39546;45.534;12.048;2023-05-10T23:16:50;14.20;89.00
53643;DHT22;39546;45.534;12.048;2023-05-10T23:23:26;14.30;88.90
53643;DHT22;39546;45.534;12.048;2023-05-10T23:29:28;14.20;88.70
53643;DHT22;39546;45.534;12.048;2023-05-10T23:35:30;14.20;88.90
53643;DHT22;39546;45.534;12.048;2023-05-10T23:41:32;14.20;88.90
53643;DHT22;39546;45.534;12.048;2023-05-10T23:47:34;14.20;88.80
53643;DHT22;39546;45.534;12.048;2023-05-10T23:53:37;14.20;88.80
53643;DHT22;39546;45.534;12.048;2023-05-10T23:59:39;14.10;89.00
